createdAt,value
2022-08-23T00:01:39.349Z,7.53
2022-08-23T00:04:15.534Z,5.72
2022-08-23T00:06:46.207Z,9.02
2022-08-23T00:09:14.048Z,9.57
2022-08-23T00:14:24.765Z,6.38
2022-08-23T00:16:52.254Z,5.85
2022-08-23T00:19:20.335Z,5.07
2022-08-23T00:21:47.965Z,4.80
2022-08-23T00:24:15.859Z,9.43
2022-08-23T00:29:30.309Z,9.35
2022-08-23T00:31:57.677Z,5.47
2022-08-23T00:34:24.617Z,7.68
2022-08-23T00:36:51.918Z,10.20
2022-08-23T00:39:19.394Z,6.60
2022-08-23T00:41:47.973Z,8.60
2022-08-23T00:45:02.189Z,6.20
2022-08-23T00:47:41.403Z,6.13
2022-08-23T00:50:28.959Z,6.28
2022-08-23T00:53:12.654Z,7.13
2022-08-23T00:55:42.456Z,8.35
2022-08-23T00:58:10.153Z,6.40
2022-08-23T01:03:07.603Z,5.43
2022-08-23T01:06:17.188Z,6.70
2022-08-23T01:08:48.823Z,5.15
2022-08-23T01:11:22.239Z,6.13
2022-08-23T01:14:01.118Z,5.18
2022-08-23T01:16:34.344Z,4.63
2022-08-23T01:19:05.372Z,5.55
2022-08-23T01:21:41.373Z,4.78
2022-08-23T01:24:10.433Z,5.32
2022-08-23T01:29:16.936Z,4.82
2022-08-23T01:31:43.953Z,7.10
2022-08-23T01:34:14.142Z,5.53
2022-08-23T01:36:43.456Z,4.82
2022-08-23T01:39:10.626Z,7.53
2022-08-23T01:41:40.354Z,6.43
2022-08-23T01:44:09.122Z,4.63
2022-08-23T01:46:36.794Z,6.60
2022-08-23T01:49:08.329Z,8.63
2022-08-23T01:51:35.661Z,7.80
2022-08-23T01:54:02.352Z,6.13
2022-08-23T01:56:38.788Z,7.72
2022-08-23T01:59:10.439Z,4.88
2022-08-23T02:01:42.699Z,7.13
2022-08-23T02:04:09.453Z,10.20
2022-08-23T02:06:36.362Z,8.00
2022-08-23T02:09:05.766Z,8.07
2022-08-23T02:11:45.261Z,8.50
2022-08-23T02:17:03.096Z,10.38
2022-08-23T02:19:37.240Z,4.97
2022-08-23T02:22:06.064Z,6.88
2022-08-23T02:24:34.320Z,7.78
2022-08-23T02:27:05.023Z,9.50
2022-08-23T02:29:38.337Z,6.00
2022-08-23T02:32:10.102Z,3.70
2022-08-23T02:34:38.716Z,5.95
2022-08-23T02:37:07.773Z,5.28
2022-08-23T02:39:35.586Z,7.43
2022-08-23T02:42:07.002Z,5.70
2022-08-23T02:44:37.873Z,6.32
2022-08-23T02:47:07.694Z,7.90
2022-08-23T02:49:36.653Z,7.68
2022-08-23T02:52:06.357Z,9.07
2022-08-23T02:54:35.326Z,8.57
2022-08-23T02:57:02.333Z,8.10
2022-08-23T02:59:29.159Z,5.38
2022-08-23T03:01:56.094Z,7.03
2022-08-23T03:04:31.137Z,8.45
2022-08-23T03:06:57.850Z,5.47
2022-08-23T03:09:25.123Z,4.78
2022-08-23T03:11:51.858Z,6.45
2022-08-23T03:14:20.465Z,7.28
2022-08-23T03:16:48.254Z,8.35
2022-08-23T03:19:15.172Z,7.97
2022-08-23T03:21:43.413Z,6.07
2022-08-23T03:24:11.898Z,6.85
2022-08-23T03:26:48.426Z,9.02
2022-08-23T03:29:17.334Z,6.90
2022-08-23T03:31:58.598Z,5.63
2022-08-23T03:34:26.490Z,11.50
2022-08-23T03:39:20.434Z,7.45
2022-08-23T03:41:47.748Z,6.28
2022-08-23T03:44:15.176Z,8.60
2022-08-23T03:46:44.079Z,8.30
2022-08-23T03:49:11.001Z,9.77
2022-08-23T03:51:58.367Z,6.22
2022-08-23T03:54:25.026Z,5.22
2022-08-23T03:57:04.174Z,6.85
2022-08-23T03:59:36.827Z,7.45
2022-08-23T04:02:07.489Z,9.68
2022-08-23T04:04:34.566Z,12.48
2022-08-23T04:07:22.668Z,6.35
2022-08-23T04:09:55.425Z,9.05
2022-08-23T04:12:24.927Z,7.20
2022-08-23T04:14:53.467Z,6.67
2022-08-23T04:17:21.631Z,10.45
2022-08-23T04:19:49.593Z,10.82
2022-08-23T04:22:18.568Z,9.27
2022-08-23T04:24:45.975Z,13.30
2022-08-23T04:27:13.194Z,8.38
2022-08-23T04:29:40.297Z,9.45
2022-08-23T04:34:45.514Z,9.70
2022-08-23T04:37:14.655Z,13.38
2022-08-23T04:40:00.609Z,7.10
2022-08-23T04:42:34.389Z,12.88
2022-08-23T04:45:01.614Z,11.00
2022-08-23T04:47:28.423Z,10.07
2022-08-23T04:49:59.515Z,11.48
2022-08-23T04:52:26.211Z,11.48
2022-08-23T04:54:52.847Z,12.60
2022-08-23T04:57:42.506Z,11.18
2022-08-23T05:00:13.567Z,12.73
2022-08-23T05:02:47.667Z,10.25
2022-08-23T05:05:14.501Z,13.93
2022-08-23T05:07:44.555Z,15.43
2022-08-23T05:10:13.882Z,17.30
2022-08-23T05:12:44.183Z,15.57
2022-08-23T05:15:12.266Z,17.00
2022-08-23T05:17:44.139Z,18.95
2022-08-23T05:20:11.617Z,23.50
2022-08-23T05:22:41.905Z,20.85
2022-08-23T05:25:20.406Z,19.85
2022-08-23T05:30:15.662Z,21.17
2022-08-23T05:32:43.583Z,19.20
2022-08-23T05:35:12.019Z,23.48
2022-08-23T05:37:43.119Z,22.10
2022-08-23T05:40:11.871Z,23.23
2022-08-23T05:42:48.670Z,23.55
2022-08-23T05:45:19.399Z,24.45
2022-08-23T05:47:54.463Z,19.60
2022-08-23T05:50:27.582Z,28.98
2022-08-23T05:52:54.399Z,25.50
2022-08-23T05:55:22.198Z,26.23
2022-08-23T05:58:15.195Z,29.35
2022-08-23T06:00:42.071Z,25.23
2022-08-23T06:03:09.493Z,26.65
2022-08-23T06:05:40.779Z,25.23
2022-08-23T06:08:08.131Z,24.40
2022-08-23T06:10:39.349Z,23.97
2022-08-23T06:13:20.327Z,27.15
2022-08-23T06:15:47.227Z,27.73
2022-08-23T06:18:14.467Z,41.03
2022-08-23T06:20:42.127Z,55.35
2022-08-23T06:23:12.834Z,29.70
2022-08-23T06:25:41.497Z,24.00
2022-08-23T06:28:15.977Z,21.88
2022-08-23T06:30:42.994Z,24.35
2022-08-23T06:33:36.299Z,21.25
2022-08-23T06:36:32.128Z,26.00
2022-08-23T06:39:15.989Z,26.65
2022-08-23T06:42:13.320Z,30.37
2022-08-23T06:44:49.175Z,24.17
2022-08-23T06:47:28.541Z,17.83
2022-08-23T06:49:58.408Z,22.23
2022-08-23T06:52:52.891Z,25.77
2022-08-23T06:55:35.832Z,22.40
2022-08-23T06:58:14.790Z,18.42
2022-08-23T07:01:48.999Z,19.23
2022-08-23T07:04:26.289Z,16.85
2022-08-23T07:07:02.436Z,18.02
2022-08-23T07:09:30.739Z,23.60
2022-08-23T07:11:58.919Z,14.13
2022-08-23T07:14:26.645Z,16.58
2022-08-23T07:16:59.986Z,17.05
2022-08-23T07:19:30.077Z,18.27
2022-08-23T07:21:58.497Z,18.58
2022-08-23T07:24:29.494Z,31.60
2022-08-23T07:27:01.254Z,14.60
2022-08-23T07:29:29.935Z,13.85
2022-08-23T07:31:57.984Z,22.52
2022-08-23T07:34:26.165Z,15.25
2022-08-23T07:36:54.074Z,17.02
2022-08-23T07:39:22.433Z,11.93
2022-08-23T07:41:52.655Z,10.65
2022-08-23T07:44:27.069Z,10.68
2022-08-23T07:46:55.066Z,9.55
2022-08-23T07:49:22.534Z,11.52
2022-08-23T07:51:58.789Z,8.55
2022-08-23T07:54:26.184Z,10.30
2022-08-23T07:57:02.048Z,10.35
2022-08-23T07:59:48.599Z,6.53
2022-08-23T08:02:27.282Z,6.28
2022-08-23T08:04:54.199Z,12.30
2022-08-23T08:07:21.735Z,11.27
2022-08-23T08:09:57.183Z,9.57
2022-08-23T08:12:24.378Z,7.80
2022-08-23T08:14:55.124Z,11.00
2022-08-23T08:17:27.861Z,11.48
2022-08-23T08:20:13.984Z,9.23
2022-08-23T08:23:00.518Z,8.27
2022-08-23T08:25:59.792Z,5.75
2022-08-23T08:28:27.341Z,12.88
2022-08-23T08:30:54.112Z,12.32
2022-08-23T08:33:21.546Z,31.70
2022-08-23T08:35:58.024Z,9.25
2022-08-23T08:38:28.870Z,9.32
2022-08-23T08:41:05.706Z,7.05
2022-08-23T08:43:50.672Z,8.25
2022-08-23T08:46:32.189Z,7.20
2022-08-23T08:49:02.084Z,11.30
2022-08-23T08:51:42.167Z,7.03
2022-08-23T08:54:12.735Z,7.68
2022-08-23T08:56:51.420Z,11.85
2022-08-23T09:00:01.783Z,8.55
2022-08-23T09:02:35.298Z,7.63
2022-08-23T09:05:18.212Z,6.45
2022-08-23T09:08:12.850Z,8.43
2022-08-23T09:11:06.527Z,7.13
2022-08-23T09:13:55.646Z,6.72
2022-08-23T09:16:40.638Z,3.58
2022-08-23T09:19:08.966Z,8.25
2022-08-23T09:21:45.816Z,3.88
2022-08-23T09:24:13.622Z,5.55
2022-08-23T09:26:58.750Z,5.45
2022-08-23T09:29:25.446Z,5.45
2022-08-23T09:32:02.565Z,6.28
2022-08-23T09:34:36.272Z,8.77
2022-08-23T09:37:12.469Z,4.15
2022-08-23T09:39:47.514Z,3.17
2022-08-23T09:42:30.990Z,4.05
2022-08-23T09:44:58.676Z,3.65
2022-08-23T09:50:17.845Z,4.63
2022-08-23T09:52:48.693Z,4.28
2022-08-23T09:55:31.880Z,5.25
2022-08-23T09:58:01.230Z,4.60
2022-08-23T10:00:35.818Z,5.57
2022-08-23T10:03:28.886Z,3.28
2022-08-23T10:06:02.486Z,5.15
2022-08-23T10:08:42.874Z,3.70
2022-08-23T10:11:27.990Z,3.45
2022-08-23T10:13:56.949Z,4.13
2022-08-23T10:16:36.742Z,3.63
2022-08-23T10:19:27.422Z,6.72
2022-08-23T10:21:57.542Z,7.82
2022-08-23T10:24:46.181Z,5.75
2022-08-23T10:27:52.643Z,3.75
2022-08-23T10:30:26.342Z,3.55
2022-08-23T10:33:09.958Z,3.63
2022-08-23T10:35:50.137Z,2.33
2022-08-23T10:38:37.760Z,2.20
2022-08-23T10:41:29.024Z,5.10
2022-08-23T10:44:04.636Z,2.72
2022-08-23T10:46:37.575Z,2.42
2022-08-23T10:49:07.946Z,3.53
2022-08-23T10:51:40.399Z,4.38
2022-08-23T10:54:12.648Z,4.25
2022-08-23T10:56:48.673Z,4.97
2022-08-23T10:59:23.965Z,3.00
2022-08-23T11:02:12.106Z,4.03
2022-08-23T11:05:02.734Z,4.45
2022-08-23T11:07:36.923Z,4.18
2022-08-23T11:10:41.991Z,2.65
2022-08-23T11:13:29.340Z,1.95
2022-08-23T11:16:25.580Z,8.00
2022-08-23T11:18:52.741Z,0.70
2022-08-23T11:21:26.129Z,2.17
2022-08-23T11:23:58.951Z,1.58
2022-08-23T11:26:31.298Z,1.73
2022-08-23T11:29:07.511Z,2.13
2022-08-23T11:31:43.025Z,2.13
2022-08-23T11:34:27.296Z,3.92
2022-08-23T11:37:19.958Z,4.85
2022-08-23T11:39:59.921Z,7.57
2022-08-23T11:42:38.647Z,3.78
2022-08-23T11:45:22.298Z,3.20
2022-08-23T11:48:03.842Z,4.00
2022-08-23T11:50:59.564Z,7.35
2022-08-23T11:53:46.370Z,5.93
2022-08-23T11:56:33.839Z,7.00
2022-08-23T11:59:34.950Z,4.63
2022-08-23T12:02:33.313Z,5.82
2022-08-23T12:05:06.538Z,4.75
2022-08-23T12:08:01.191Z,17.10
2022-08-23T12:10:43.472Z,4.00
2022-08-23T12:13:22.483Z,4.18
2022-08-23T12:16:16.996Z,10.82
2022-08-23T12:18:47.696Z,3.05
2022-08-23T12:21:23.695Z,1.30
2022-08-23T12:23:54.454Z,6.30
2022-08-23T12:26:24.202Z,2.65
2022-08-23T12:29:01.272Z,2.30
2022-08-23T12:31:47.616Z,2.00
2022-08-23T12:34:14.253Z,2.38
2022-08-23T12:37:09.271Z,2.10
2022-08-23T12:39:40.214Z,1.02
2022-08-23T12:42:15.670Z,1.80
2022-08-23T12:44:47.695Z,1.38
2022-08-23T12:47:20.732Z,1.63
2022-08-23T12:50:15.080Z,3.08
2022-08-23T12:52:42.722Z,0.80
2022-08-23T12:57:50.492Z,2.50
2022-08-23T13:00:19.563Z,1.25
2022-08-23T13:02:56.367Z,1.48
2022-08-23T13:06:25.028Z,3.72
2022-08-23T13:09:01.615Z,3.83
2022-08-23T13:11:32.413Z,2.33
2022-08-23T13:14:01.142Z,1.00
2022-08-23T13:16:36.515Z,3.20
2022-08-23T13:19:24.921Z,2.60
2022-08-23T13:22:19.390Z,4.05
2022-08-23T13:25:31.263Z,1.02
2022-08-23T13:27:46.987Z,3.10
2022-08-23T13:30:14.049Z,2.17
2022-08-23T13:32:48.152Z,0.90
2022-08-23T13:35:36.145Z,3.85
2022-08-23T13:38:08.630Z,2.88
2022-08-23T13:40:44.279Z,1.10
2022-08-23T13:43:20.969Z,3.05
2022-08-23T13:45:54.799Z,1.35
2022-08-23T13:48:25.929Z,5.10
2022-08-23T13:50:53.413Z,0.82
2022-08-23T13:55:55.925Z,1.65
2022-08-23T13:58:33.912Z,0.73
2022-08-23T14:01:02.188Z,2.63
2022-08-23T14:03:31.579Z,2.28
2022-08-23T14:05:58.266Z,2.78
2022-08-23T14:08:25.108Z,0.93
2022-08-23T14:10:52.315Z,1.33
2022-08-23T14:13:22.982Z,0.60
2022-08-23T14:15:58.831Z,2.55
2022-08-23T14:18:36.564Z,0.80
2022-08-23T14:21:03.609Z,1.52
2022-08-23T14:23:30.303Z,0.70
2022-08-23T14:25:58.459Z,1.20
2022-08-23T14:28:29.461Z,1.85
2022-08-23T14:30:57.496Z,1.90
2022-08-23T14:33:24.498Z,6.57
2022-08-23T14:35:52.450Z,10.18
2022-08-23T14:38:19.366Z,3.00
2022-08-23T14:43:20.524Z,9.00
2022-08-23T14:45:47.467Z,3.80
2022-08-23T14:48:14.148Z,0.20
2022-08-23T14:50:41.297Z,3.13
2022-08-23T14:55:35.068Z,1.75
2022-08-23T14:58:03.645Z,0.38
2022-08-23T15:00:31.933Z,0.45
2022-08-23T15:02:58.748Z,3.45
2022-08-23T15:05:25.487Z,0.10
2022-08-23T15:07:52.315Z,0.30
2022-08-23T15:13:29.768Z,7.25
2022-08-23T15:15:53.592Z,1.30
2022-08-23T15:18:20.357Z,4.22
2022-08-23T15:20:47.058Z,0.65
2022-08-23T15:23:14.261Z,0.75
2022-08-23T15:25:43.711Z,1.27
2022-08-23T15:28:14.419Z,1.88
2022-08-23T15:30:42.258Z,1.75
2022-08-23T15:33:10.545Z,1.00
2022-08-23T15:35:41.028Z,0.95
2022-08-23T15:38:10.023Z,0.50
2022-08-23T15:40:37.428Z,0.52
2022-08-23T15:43:04.217Z,1.58
2022-08-23T15:45:33.256Z,1.05
2022-08-23T15:48:01.657Z,5.25
2022-08-23T15:50:32.380Z,2.08
2022-08-23T15:52:59.393Z,0.30
2022-08-23T15:55:31.010Z,1.00
2022-08-23T15:58:00.493Z,0.50
2022-08-23T16:00:27.739Z,0.82
2022-08-23T16:03:19.175Z,1.58
2022-08-23T16:05:44.781Z,1.05
2022-08-23T16:08:23.529Z,0.80
2022-08-23T16:10:51.180Z,1.88
2022-08-23T16:13:18.235Z,2.55
2022-08-23T16:15:45.383Z,1.13
2022-08-23T16:18:12.296Z,1.60
2022-08-23T16:23:05.530Z,0.47
2022-08-23T16:25:32.405Z,0.43
2022-08-23T16:27:59.547Z,1.75
2022-08-23T16:30:26.610Z,0.38
2022-08-23T16:35:19.944Z,0.30
2022-08-23T16:37:46.673Z,5.90
2022-08-23T16:40:13.795Z,0.20
2022-08-23T16:45:08.923Z,0.82
2022-08-23T16:47:40.941Z,4.00
2022-08-23T16:50:09.399Z,2.05
2022-08-23T16:52:36.081Z,2.38
2022-08-23T16:55:06.138Z,0.40
2022-08-23T16:57:33.015Z,0.85
2022-08-23T16:59:59.767Z,0.85
2022-08-23T17:02:30.428Z,2.63
2022-08-23T17:04:58.184Z,0.50
2022-08-23T17:07:25.055Z,1.35
2022-08-23T17:09:51.969Z,0.38
2022-08-23T17:12:19.919Z,1.38
2022-08-23T17:14:49.090Z,1.58
2022-08-23T17:17:16.439Z,0.38
2022-08-23T17:19:44.749Z,1.73
2022-08-23T17:22:11.966Z,1.45
2022-08-23T17:24:39.220Z,1.85
2022-08-23T17:27:06.803Z,2.17
2022-08-23T17:29:37.546Z,1.85
2022-08-23T17:32:05.104Z,2.33
2022-08-23T17:34:31.869Z,2.53
2022-08-23T17:36:58.630Z,6.55
2022-08-23T17:39:29.119Z,3.88
2022-08-23T17:41:57.653Z,0.85
2022-08-23T17:44:24.646Z,1.45
2022-08-23T17:46:51.459Z,2.28
2022-08-23T17:49:20.153Z,1.20
2022-08-23T17:51:48.330Z,3.38
2022-08-23T17:54:16.058Z,1.83
2022-08-23T17:56:43.008Z,1.05
2022-08-23T17:59:16.975Z,3.30
2022-08-23T18:01:43.570Z,1.58
2022-08-23T18:04:10.355Z,2.92
2022-08-23T18:06:37.349Z,3.47
2022-08-23T18:09:06.380Z,2.85
2022-08-23T18:11:34.930Z,0.60
2022-08-23T18:14:02.037Z,3.05
2022-08-23T18:16:34.497Z,3.38
2022-08-23T18:19:04.104Z,1.10
2022-08-23T18:21:31.190Z,1.17
2022-08-23T18:23:58.966Z,5.18
2022-08-23T18:26:44.988Z,3.70
2022-08-23T18:29:14.506Z,0.70
2022-08-23T18:31:42.816Z,2.60
2022-08-23T18:34:10.968Z,1.88
2022-08-23T18:36:37.891Z,0.85
2022-08-23T18:39:06.057Z,2.42
2022-08-23T18:41:32.680Z,1.73
2022-08-23T18:43:59.664Z,1.48
2022-08-23T18:46:33.838Z,1.48
2022-08-23T18:49:00.984Z,2.70
2022-08-23T18:51:27.834Z,1.13
2022-08-23T18:53:54.518Z,4.32
2022-08-23T18:56:21.478Z,1.38
2022-08-23T18:58:48.390Z,2.17
2022-08-23T19:01:26.491Z,4.10
2022-08-23T19:03:54.728Z,2.17
2022-08-23T19:06:22.052Z,2.17
2022-08-23T19:08:48.923Z,4.60
2022-08-23T19:11:15.996Z,34.35
2022-08-23T19:13:42.756Z,29.67
2022-08-23T19:16:13.879Z,2.23
2022-08-23T19:18:42.701Z,4.15
2022-08-23T19:21:10.090Z,5.30
2022-08-23T19:23:37.674Z,1.90
2022-08-23T19:28:36.384Z,11.07
2022-08-23T19:31:03.148Z,6.67
2022-08-23T19:33:30.311Z,3.72
2022-08-23T19:35:58.368Z,6.40
2022-08-23T19:38:27.681Z,2.88
2022-08-23T19:41:00.742Z,8.88
2022-08-23T19:43:27.482Z,6.50
2022-08-23T19:45:54.897Z,5.00
2022-08-23T19:48:21.620Z,2.88
2022-08-23T19:50:49.462Z,7.87
2022-08-23T19:53:16.482Z,4.47
2022-08-23T19:55:44.808Z,2.13
2022-08-23T19:58:13.316Z,3.17
2022-08-23T20:00:40.163Z,6.70
2022-08-23T20:03:06.948Z,5.60
2022-08-23T20:05:34.315Z,1.50
2022-08-23T20:08:01.104Z,4.05
2022-08-23T20:10:28.184Z,8.00
2022-08-23T20:12:54.828Z,20.58
2022-08-23T20:15:22.212Z,7.33
2022-08-23T20:17:48.889Z,3.03
2022-08-23T20:20:15.627Z,5.03
2022-08-23T20:23:02.412Z,2.22
2022-08-23T20:25:30.686Z,4.60
2022-08-23T20:27:57.768Z,3.90
2022-08-23T20:30:24.454Z,4.45
2022-08-23T20:32:51.332Z,3.10
2022-08-23T20:35:18.329Z,2.45
2022-08-23T20:37:45.181Z,3.53
2022-08-23T20:40:12.060Z,5.18
2022-08-23T20:42:39.264Z,6.10
2022-08-23T20:45:06.438Z,4.13
2022-08-23T20:47:33.600Z,5.88
2022-08-23T20:50:00.289Z,6.20
2022-08-23T20:52:27.742Z,6.15
2022-08-23T20:54:55.648Z,2.97
2022-08-23T20:57:22.284Z,6.03
2022-08-23T20:59:48.978Z,2.88
2022-08-23T21:02:15.708Z,4.70
2022-08-23T21:04:42.371Z,6.23
2022-08-23T21:07:09.333Z,2.35
2022-08-23T21:09:36.067Z,2.30
2022-08-23T21:12:02.926Z,3.45
2022-08-23T21:14:29.718Z,5.43
2022-08-23T21:16:56.512Z,4.33
2022-08-23T21:19:23.214Z,3.17
2022-08-23T21:21:49.994Z,3.65
2022-08-23T21:24:16.873Z,8.27
2022-08-23T21:26:43.598Z,7.93
2022-08-23T21:29:11.278Z,15.77
2022-08-23T21:34:06.003Z,5.88
2022-08-23T21:36:32.618Z,4.47
2022-08-23T21:38:59.293Z,4.97
2022-08-23T21:41:28.133Z,3.97
2022-08-23T21:43:54.843Z,7.32
2022-08-23T21:46:21.587Z,4.20
2022-08-23T21:48:48.245Z,6.68
2022-08-23T21:51:14.914Z,5.50
2022-08-23T21:53:41.551Z,5.03
2022-08-23T21:56:08.195Z,5.53
2022-08-23T21:58:34.827Z,3.20
2022-08-23T22:01:01.500Z,6.10
2022-08-23T22:03:28.683Z,3.92
2022-08-23T22:08:22.467Z,3.40
2022-08-23T22:10:57.870Z,5.80
2022-08-23T22:13:28.702Z,3.75
2022-08-23T22:15:56.304Z,7.22
2022-08-23T22:18:23.190Z,6.05
2022-08-23T22:20:49.910Z,4.40
2022-08-23T22:23:17.344Z,8.00
2022-08-23T22:25:44.253Z,7.47
2022-08-23T22:28:10.993Z,5.18
2022-08-23T22:30:37.679Z,5.25
2022-08-23T22:33:04.551Z,6.55
2022-08-23T22:35:34.335Z,6.18
2022-08-23T22:38:13.788Z,5.30
2022-08-23T22:40:50.643Z,7.40
2022-08-23T22:43:19.129Z,21.05
2022-08-23T22:45:54.186Z,15.98
2022-08-23T22:48:21.485Z,7.72
2022-08-23T22:50:48.571Z,7.25
2022-08-23T22:53:16.226Z,8.73
2022-08-23T22:55:43.071Z,8.77
2022-08-23T22:58:09.864Z,6.87
2022-08-23T23:00:42.202Z,6.50
2022-08-23T23:03:10.493Z,10.18
2022-08-23T23:05:37.620Z,7.43
2022-08-23T23:08:23.014Z,6.30
2022-08-23T23:10:49.991Z,8.52
2022-08-23T23:13:16.673Z,6.18
2022-08-23T23:15:43.661Z,5.88
2022-08-23T23:18:10.385Z,5.38
2022-08-23T23:20:39.066Z,5.30
2022-08-23T23:23:07.935Z,5.55
2022-08-23T23:25:36.227Z,5.40
2022-08-23T23:28:05.113Z,7.28
2022-08-23T23:30:32.576Z,4.82
2022-08-23T23:32:59.328Z,7.72
2022-08-23T23:35:28.253Z,6.53
2022-08-23T23:37:56.593Z,4.38
2022-08-23T23:40:24.533Z,6.10
2022-08-23T23:42:52.046Z,9.23
2022-08-23T23:45:19.081Z,8.18
2022-08-23T23:47:46.264Z,5.80
2022-08-23T23:50:13.987Z,6.72
2022-08-23T23:55:11.591Z,4.35
2022-08-23T23:57:38.573Z,4.90
